createdAt,value
2019-01-19T00:08:46.537Z,0.69
2019-01-19T00:19:13.571Z,0.56
2019-01-19T00:29:23.467Z,0.44
2019-01-19T00:39:30.664Z,0.62
2019-01-19T00:49:35.704Z,0.44
2019-01-19T00:59:41.134Z,0.56
2019-01-19T01:09:57.280Z,0.44
2019-01-19T01:20:16.132Z,0.50
2019-01-19T01:30:41.314Z,0.56
2019-01-19T01:41:09.678Z,0.31
2019-01-19T01:51:31.960Z,0.37
2019-01-19T02:01:41.887Z,0.44
2019-01-19T02:12:10.861Z,0.37
2019-01-19T02:22:32.975Z,0.37
2019-01-19T02:32:45.904Z,0.31
2019-01-19T02:43:11.208Z,0.19
2019-01-19T02:53:19.639Z,0.31
2019-01-19T03:03:42.202Z,0.25
2019-01-19T03:14:13.365Z,0.25
2019-01-19T03:24:26.250Z,0.44
2019-01-19T03:34:59.455Z,0.56
2019-01-19T03:45:14.991Z,0.50
2019-01-19T03:55:24.704Z,0.69
2019-01-19T04:05:37.826Z,0.56
2019-01-19T04:15:54.044Z,0.81
2019-01-19T04:26:00.770Z,0.94
2019-01-19T04:36:04.729Z,1.06
2019-01-19T04:46:08.764Z,0.81
2019-01-19T04:56:12.793Z,0.75
2019-01-19T05:06:17.009Z,1.00
2019-01-19T05:16:20.975Z,0.94
2019-01-19T05:26:24.935Z,1.06
2019-01-19T05:36:28.992Z,0.81
2019-01-19T05:46:33.017Z,0.69
2019-01-19T05:56:37.119Z,0.94
2019-01-19T06:06:46.566Z,1.00
2019-01-19T06:16:46.730Z,1.12
2019-01-19T06:26:50.694Z,0.94
2019-01-19T06:36:55.255Z,1.12
2019-01-19T06:46:59.428Z,1.00
2019-01-19T06:57:03.509Z,0.62
2019-01-19T07:07:07.523Z,0.94
2019-01-19T07:17:11.536Z,0.81
2019-01-19T07:27:15.777Z,0.94
2019-01-19T07:37:19.708Z,1.19
2019-01-19T07:47:23.439Z,1.25
2019-01-19T07:57:31.270Z,1.12
2019-01-19T08:07:32.887Z,1.31
2019-01-19T08:17:36.814Z,1.19
2019-01-19T08:27:40.067Z,1.44
2019-01-19T08:37:44.075Z,1.37
2019-01-19T08:47:48.003Z,1.50
2019-01-19T08:57:51.312Z,1.37
2019-01-19T09:07:55.174Z,2.00
2019-01-19T09:17:58.423Z,2.19
2019-01-19T09:28:02.347Z,2.12
2019-01-19T09:38:05.612Z,2.50
2019-01-19T09:48:09.484Z,2.31
2019-01-19T09:58:12.732Z,2.56
2019-01-19T10:08:16.599Z,2.69
2019-01-19T10:18:19.936Z,2.12
2019-01-19T10:28:23.783Z,2.06
2019-01-19T10:38:27.800Z,2.12
2019-01-19T10:48:31.252Z,2.62
2019-01-19T10:58:35.111Z,2.50
2019-01-19T11:08:38.412Z,2.56
2019-01-19T11:18:42.344Z,2.37
2019-01-19T11:28:46.364Z,2.44
2019-01-19T11:38:50.488Z,2.56
2019-01-19T11:48:54.478Z,2.25
2019-01-19T11:58:57.726Z,2.37
2019-01-19T12:09:01.739Z,2.50
2019-01-19T12:19:07.167Z,2.50
2019-01-19T12:29:10.425Z,2.44
2019-01-19T12:39:14.263Z,3.12
2019-01-19T12:49:17.527Z,3.44
2019-01-19T12:59:21.394Z,3.00
2019-01-19T13:09:24.750Z,2.50
2019-01-19T13:19:34.598Z,2.31
2019-01-19T13:29:56.817Z,2.50
2019-01-19T13:40:09.716Z,2.56
2019-01-19T13:50:43.893Z,3.06
2019-01-19T14:00:48.797Z,2.69
2019-01-19T14:11:17.132Z,2.75
2019-01-19T14:21:26.915Z,2.25
2019-01-19T14:31:52.100Z,2.19
2019-01-19T14:42:05.275Z,2.06
2019-01-19T14:52:27.166Z,2.00
2019-01-19T15:02:46.416Z,1.81
2019-01-19T15:13:02.753Z,1.69
2019-01-19T15:23:24.868Z,1.50
2019-01-19T15:34:00.512Z,1.37
2019-01-19T15:44:15.908Z,1.31
2019-01-19T15:54:31.927Z,0.94
2019-01-19T16:04:47.365Z,1.19
2019-01-19T16:15:09.493Z,0.94
2019-01-19T16:25:34.545Z,1.00
2019-01-19T16:35:53.749Z,0.75
2019-01-19T16:46:15.830Z,0.62
2019-01-19T16:56:25.779Z,0.69
2019-01-19T17:06:44.996Z,0.50
2019-01-19T17:16:55.347Z,0.19
2019-01-19T17:27:17.337Z,0.31
2019-01-19T17:37:27.256Z,0.06
2019-01-19T17:47:49.645Z,0.19
2019-01-19T17:58:12.957Z,0.19
2019-01-19T18:08:32.137Z,0.00
2019-01-19T18:18:48.127Z,0.06
2019-01-19T18:29:04.397Z,0.13
2019-01-19T18:39:11.679Z,0.06
2019-01-19T18:49:21.700Z,-0.25
2019-01-19T18:59:28.915Z,-0.31
2019-01-19T19:09:38.822Z,-0.13
2019-01-19T19:19:58.323Z,-0.19
2019-01-19T19:30:14.339Z,-0.25
2019-01-19T19:40:21.678Z,-0.25
2019-01-19T19:50:43.980Z,-0.62
2019-01-19T20:00:48.303Z,-0.69
2019-01-19T20:10:52.270Z,-0.62
2019-01-19T20:20:56.232Z,-0.62
2019-01-19T20:31:00.222Z,-0.69
2019-01-19T20:41:04.336Z,-0.75
2019-01-19T20:51:08.442Z,-0.81
2019-01-19T21:01:13.395Z,-0.94
2019-01-19T21:11:17.480Z,-1.00
2019-01-19T21:21:21.544Z,-1.12
2019-01-19T21:31:25.782Z,-1.19
2019-01-19T21:41:29.674Z,-1.19
2019-01-19T21:51:33.727Z,-0.94
2019-01-19T22:01:38.148Z,-1.12
2019-01-19T22:11:42.272Z,-1.25
2019-01-19T22:21:46.250Z,-1.06
2019-01-19T22:31:50.292Z,-1.12
2019-01-19T22:41:54.243Z,-1.00
2019-01-19T22:51:58.190Z,-1.00
2019-01-19T23:02:02.530Z,-1.19
2019-01-19T23:12:06.553Z,-1.31
2019-01-19T23:22:10.612Z,-1.31
2019-01-19T23:32:14.568Z,-1.62
2019-01-19T23:42:18.514Z,-1.50
2019-01-19T23:52:22.519Z,-1.37
